Time;durP1;ratioP1;P1;durP2;ratioP2;P2;SDS_P1;SDS_P2;PMS_P1;PMS_P2;Temp;Humidity;BMP_temperature;BMP_pressure;BME280_temperature;BME280_humidity;BME280_pressure;Samples;Min_cycle;Max_cycle;Signal;HPM_P1;HPM_P2
2023/06/06 00:02:22;;;;;;;10.30;5.60;;;20.30;61.00;;;;;;4998031;28;20117;-62
2023/06/06 00:04:49;;;;;;;9.30;5.93;;;20.30;61.00;;;;;;4996534;28;20054;-56
2023/06/06 00:07:16;;;;;;;9.07;5.53;;;20.30;61.00;;;;;;4995961;28;20658;-59
2023/06/06 00:09:42;;;;;;;8.65;5.75;;;20.30;61.00;;;;;;4996229;28;20026;-63
2023/06/06 00:12:12;;;;;;;7.30;5.45;;;20.30;61.00;;;;;;4996461;28;20501;-59
2023/06/06 00:14:41;;;;;;;9.25;5.10;;;20.30;61.00;;;;;;4994137;28;20555;-59
2023/06/06 00:17:08;;;;;;;7.60;5.93;;;20.30;61.00;;;;;;4993714;28;20461;-63
2023/06/06 00:19:35;;;;;;;8.10;5.13;;;20.30;61.00;;;;;;4996199;28;20038;-60
2023/06/06 00:22:02;;;;;;;7.32;5.10;;;20.30;60.90;;;;;;5003107;28;20574;-62
2023/06/06 00:24:28;;;;;;;6.68;4.78;;;20.30;61.10;;;;;;4993646;28;20096;-58
2023/06/06 00:26:53;;;;;;;8.55;5.03;;;20.30;60.90;;;;;;4997387;28;20129;-64
2023/06/06 00:29:19;;;;;;;8.15;5.85;;;20.30;61.10;;;;;;4995446;28;20026;-61
2023/06/06 00:31:45;;;;;;;5.70;4.28;;;20.30;61.00;;;;;;4994190;28;20102;-62
2023/06/06 00:34:10;;;;;;;8.43;4.75;;;20.30;61.00;;;;;;4995573;28;20053;-61
2023/06/06 00:36:36;;;;;;;7.07;4.22;;;20.30;60.90;;;;;;4994880;28;20512;-62
2023/06/06 00:39:01;;;;;;;6.13;4.57;;;20.30;61.10;;;;;;4992194;28;20026;-61
2023/06/06 00:41:27;;;;;;;7.47;4.32;;;20.30;61.10;;;;;;4994233;28;20034;-62
2023/06/06 00:43:53;;;;;;;6.93;4.00;;;20.30;61.00;;;;;;4993956;28;20651;-62
2023/06/06 00:46:18;;;;;;;8.50;5.43;;;20.30;61.10;;;;;;4993597;28;20038;-63
2023/06/06 00:48:45;;;;;;;8.43;4.28;;;20.30;61.00;;;;;;4997698;28;20452;-63
2023/06/06 00:51:11;;;;;;;7.20;4.25;;;20.30;61.00;;;;;;4997659;28;20026;-57
2023/06/06 00:53:37;;;;;;;6.57;4.07;;;20.30;61.00;;;;;;4997649;28;20443;-59
2023/06/06 00:56:03;;;;;;;5.95;5.00;;;20.30;61.00;;;;;;5001960;28;20032;-57
2023/06/06 00:58:30;;;;;;;6.82;4.30;;;20.30;60.90;;;;;;5001607;28;20559;-61
2023/06/06 01:00:56;;;;;;;5.53;3.95;;;20.30;61.10;;;;;;4996996;28;20084;-57
2023/06/06 01:03:24;;;;;;;5.38;3.78;;;20.30;61.10;;;;;;5001272;28;20117;-63
2023/06/06 01:05:53;;;;;;;6.32;4.40;;;20.30;61.00;;;;;;5002192;28;20049;-62
2023/06/06 01:08:19;;;;;;;5.93;4.38;;;20.30;61.10;;;;;;4994534;28;20073;-63
2023/06/06 01:10:46;;;;;;;7.20;4.30;;;20.30;61.00;;;;;;4996991;28;20472;-57
2023/06/06 01:13:30;;;;;;;6.03;4.35;;;20.30;61.00;;;;;;4993929;28;20030;-57
2023/06/06 01:16:05;;;;;;;7.07;4.20;;;20.30;61.00;;;;;;4997721;28;20064;-57
2023/06/06 01:18:31;;;;;;;6.97;4.25;;;20.30;61.10;;;;;;5003787;28;20037;-62
2023/06/06 01:20:58;;;;;;;8.80;4.47;;;20.30;61.10;;;;;;5001130;28;20121;-60
2023/06/06 01:23:27;;;;;;;6.78;4.20;;;20.30;61.10;;;;;;5000691;28;20041;-57
2023/06/06 01:25:53;;;;;;;6.97;4.25;;;20.20;61.10;;;;;;4998461;28;20061;-54
2023/06/06 01:28:19;;;;;;;5.53;3.42;;;20.30;61.10;;;;;;4994643;28;20026;-63
2023/06/06 01:30:45;;;;;;;6.22;3.92;;;20.30;61.10;;;;;;4998832;28;20425;-58
2023/06/06 01:33:19;;;;;;;6.10;4.05;;;20.30;61.10;;;;;;5001112;28;20054;-56
2023/06/06 01:35:51;;;;;;;5.90;3.83;;;20.30;61.10;;;;;;4994777;28;20040;-65
2023/06/06 01:38:24;;;;;;;7.13;3.65;;;20.30;61.10;;;;;;4994560;28;20030;-59
2023/06/06 01:40:52;;;;;;;5.47;4.38;;;20.20;61.10;;;;;;4995983;28;20570;-62
2023/06/06 01:43:20;;;;;;;5.65;3.63;;;20.30;61.10;;;;;;4995493;28;20038;-64
2023/06/06 01:45:47;;;;;;;5.47;3.90;;;20.30;61.10;;;;;;4996430;28;20194;-64
2023/06/06 01:48:13;;;;;;;6.88;4.25;;;20.30;61.10;;;;;;5002897;28;20034;-65
2023/06/06 01:50:39;;;;;;;4.95;3.55;;;20.30;61.10;;;;;;5004560;28;20035;-65
2023/06/06 01:53:05;;;;;;;4.55;3.45;;;20.30;61.10;;;;;;5003200;28;20073;-62
2023/06/06 01:55:30;;;;;;;4.25;3.40;;;20.30;61.10;;;;;;5006461;28;20037;-64
2023/06/06 01:57:57;;;;;;;5.45;3.47;;;20.30;61.10;;;;;;5001979;28;21647;-63
2023/06/06 02:00:22;;;;;;;4.28;3.45;;;20.20;61.00;;;;;;5002762;28;20038;-63
2023/06/06 02:02:48;;;;;;;5.13;3.55;;;20.30;61.10;;;;;;4995446;28;20516;-63
2023/06/06 02:05:14;;;;;;;5.13;3.78;;;20.20;61.20;;;;;;4996343;28;20326;-62
2023/06/06 02:07:41;;;;;;;3.63;2.92;;;20.30;61.10;;;;;;4996521;28;20022;-61
2023/06/06 02:10:07;;;;;;;4.35;3.28;;;20.30;61.20;;;;;;4993252;28;20077;-61
2023/06/06 02:12:33;;;;;;;4.90;3.42;;;20.30;61.10;;;;;;4994628;28;20038;-61
2023/06/06 02:15:02;;;;;;;4.90;4.00;;;20.30;61.20;;;;;;4996058;28;20064;-62
2023/06/06 02:17:28;;;;;;;3.58;3.10;;;20.20;61.10;;;;;;4999331;28;20038;-61
2023/06/06 02:19:53;;;;;;;5.97;3.25;;;20.20;61.00;;;;;;5002095;28;20396;-65
2023/06/06 02:22:19;;;;;;;4.70;3.42;;;20.30;61.80;;;;;;4998204;28;20212;-63
2023/06/06 02:24:44;;;;;;;3.92;3.22;;;20.20;61.10;;;;;;4999951;28;20111;-62
2023/06/06 02:27:10;;;;;;;4.32;3.28;;;20.30;61.20;;;;;;5001391;28;20026;-64
2023/06/06 02:29:36;;;;;;;4.95;3.72;;;20.20;61.10;;;;;;4998290;28;20086;-63
2023/06/06 02:32:03;;;;;;;4.22;3.53;;;20.20;61.20;;;;;;4999577;28;20501;-60
2023/06/06 02:34:29;;;;;;;4.32;3.60;;;20.20;61.20;;;;;;4994404;28;20592;-62
2023/06/06 02:36:54;;;;;;;4.35;2.90;;;20.20;61.10;;;;;;4992187;28;20116;-63
2023/06/06 02:39:21;;;;;;;4.82;3.25;;;20.20;61.20;;;;;;4993605;28;20037;-62
2023/06/06 02:41:46;;;;;;;3.65;3.03;;;20.20;61.10;;;;;;4991584;28;20110;-62
2023/06/06 02:44:11;;;;;;;4.05;3.60;;;20.20;61.20;;;;;;4994299;28;20121;-63
2023/06/06 02:46:37;;;;;;;3.92;2.75;;;20.20;61.20;;;;;;4998040;28;20026;-62
2023/06/06 02:49:03;;;;;;;4.28;3.38;;;20.20;61.20;;;;;;4999008;28;20370;-63
2023/06/06 02:51:28;;;;;;;3.83;3.22;;;20.20;61.10;;;;;;4997282;28;20049;-61
2023/06/06 02:53:54;;;;;;;3.97;3.03;;;20.20;61.10;;;;;;4999046;28;20038;-64
2023/06/06 02:56:19;;;;;;;4.43;2.72;;;20.20;61.10;;;;;;5001832;28;20436;-62
2023/06/06 02:58:45;;;;;;;5.40;3.05;;;20.20;61.10;;;;;;4996632;28;20080;-64
2023/06/06 03:01:12;;;;;;;3.33;2.50;;;20.30;61.30;;;;;;4996364;28;20335;-63
2023/06/06 03:03:38;;;;;;;3.42;2.42;;;20.20;61.20;;;;;;4992314;28;20023;-62
2023/06/06 03:06:06;;;;;;;3.95;3.28;;;20.20;61.20;;;;;;4993383;28;20030;-61
2023/06/06 03:08:32;;;;;;;3.35;2.83;;;20.30;61.20;;;;;;4993717;28;20033;-62
2023/06/06 03:10:58;;;;;;;3.55;2.80;;;20.20;61.20;;;;;;4994716;28;20031;-62
2023/06/06 03:13:23;;;;;;;3.70;3.28;;;20.20;61.20;;;;;;4993068;28;20062;-63
2023/06/06 03:15:49;;;;;;;5.28;3.65;;;20.20;61.20;;;;;;5002030;28;20030;-63
2023/06/06 03:18:17;;;;;;;4.35;3.30;;;20.20;61.10;;;;;;4999587;28;20216;-63
2023/06/06 03:20:48;;;;;;;3.35;2.80;;;20.20;61.10;;;;;;4996377;28;20048;-64
2023/06/06 03:23:13;;;;;;;3.75;2.75;;;20.20;61.20;;;;;;4999674;28;20034;-60
2023/06/06 03:25:40;;;;;;;2.92;2.63;;;20.30;61.30;;;;;;4999787;28;20041;-63
2023/06/06 03:28:05;;;;;;;5.30;3.30;;;20.20;61.30;;;;;;4996836;28;20058;-60
2023/06/06 03:30:31;;;;;;;3.28;2.50;;;20.20;61.30;;;;;;4999239;28;20072;-63
2023/06/06 03:32:57;;;;;;;4.78;2.60;;;20.20;61.30;;;;;;4991350;28;20038;-63
2023/06/06 03:35:23;;;;;;;3.67;2.53;;;20.20;61.20;;;;;;4992081;28;20042;-63
2023/06/06 03:37:48;;;;;;;3.47;2.95;;;20.20;61.30;;;;;;4993843;28;20057;-64
2023/06/06 03:40:14;;;;;;;3.95;2.88;;;20.20;61.30;;;;;;4997213;28;20030;-63
2023/06/06 03:42:40;;;;;;;5.65;3.03;;;20.20;61.20;;;;;;4995359;28;20444;-63
2023/06/06 03:45:06;;;;;;;3.13;2.80;;;20.20;61.30;;;;;;4997462;28;20029;-61
2023/06/06 03:47:31;;;;;;;2.85;2.45;;;20.20;61.30;;;;;;5001278;28;20577;-62
2023/06/06 03:49:57;;;;;;;3.13;2.75;;;20.20;61.30;;;;;;4996570;28;20583;-61
2023/06/06 03:52:22;;;;;;;3.17;2.70;;;20.20;61.30;;;;;;4999880;28;20060;-63
2023/06/06 03:54:48;;;;;;;3.03;2.50;;;20.20;61.30;;;;;;4998938;28;20030;-63
2023/06/06 03:57:13;;;;;;;3.75;2.40;;;20.20;61.30;;;;;;4997465;28;20042;-62
2023/06/06 03:59:39;;;;;;;3.08;2.78;;;20.20;61.30;;;;;;4995099;28;20040;-64
2023/06/06 04:02:05;;;;;;;3.25;2.50;;;20.20;61.30;;;;;;4995246;28;20038;-63
2023/06/06 04:04:30;;;;;;;2.65;2.45;;;20.20;61.20;;;;;;4991368;28;20053;-64
2023/06/06 04:06:58;;;;;;;3.45;2.80;;;20.20;61.30;;;;;;4992344;28;20045;-63
2023/06/06 04:09:23;;;;;;;3.33;2.67;;;20.20;61.20;;;;;;4990953;28;20351;-63
2023/06/06 04:11:49;;;;;;;4.47;2.47;;;20.20;61.30;;;;;;4991432;28;20096;-62
2023/06/06 04:14:15;;;;;;;4.45;2.28;;;20.20;61.30;;;;;;4997906;28;20070;-63
2023/06/06 04:16:40;;;;;;;3.80;2.58;;;20.20;61.30;;;;;;4999620;28;20042;-61
2023/06/06 04:19:06;;;;;;;2.67;2.38;;;20.20;61.30;;;;;;4997496;28;20409;-64
2023/06/06 04:21:32;;;;;;;3.58;2.58;;;20.20;61.30;;;;;;4998177;28;20033;-63
2023/06/06 04:23:58;;;;;;;2.72;2.38;;;20.20;61.20;;;;;;4998381;28;20026;-64
2023/06/06 04:26:25;;;;;;;2.88;2.55;;;20.20;61.30;;;;;;4997163;28;20414;-63
2023/06/06 04:28:58;;;;;;;3.05;2.38;;;20.20;61.30;;;;;;4997055;28;20033;-64
2023/06/06 04:31:25;;;;;;;3.22;2.40;;;20.20;61.30;;;;;;4993988;28;20046;-63
2023/06/06 04:33:53;;;;;;;2.55;2.33;;;20.20;61.30;;;;;;4994027;28;20105;-62
2023/06/06 04:36:19;;;;;;;3.22;2.45;;;20.20;61.30;;;;;;4996461;28;20049;-64
2023/06/06 04:38:49;;;;;;;3.20;2.47;;;20.20;61.30;;;;;;4998053;28;20087;-63
2023/06/06 04:41:22;;;;;;;2.75;2.28;;;20.20;61.30;;;;;;4996244;28;21462;-62
2023/06/06 04:43:49;;;;;;;7.22;2.97;;;20.20;61.30;;;;;;5004117;28;20042;-65
2023/06/06 04:46:21;;;;;;;13.63;3.90;;;20.20;61.40;;;;;;5001033;28;20119;-63
2023/06/06 04:48:55;;;;;;;18.80;4.63;;;20.30;62.10;;;;;;5004009;28;20033;-62
2023/06/06 04:51:23;;;;;;;6.82;3.17;;;20.00;64.10;;;;;;5003613;28;20042;-62
2023/06/06 04:53:50;;;;;;;7.68;3.17;;;19.60;66.00;;;;;;5000820;28;20033;-63
2023/06/06 04:56:17;;;;;;;7.93;3.47;;;19.90;64.30;;;;;;4999730;28;20041;-65
2023/06/06 04:58:44;;;;;;;6.75;3.20;;;20.10;63.60;;;;;;4997307;28;20069;-67
2023/06/06 05:01:12;;;;;;;5.13;2.80;;;20.30;63.30;;;;;;4992546;28;20034;-67
2023/06/06 05:03:38;;;;;;;3.97;2.28;;;20.40;63.10;;;;;;4986196;28;20030;-65
2023/06/06 05:06:05;;;;;;;3.25;2.15;;;20.40;62.70;;;;;;5001341;28;20068;-65
2023/06/06 05:08:31;;;;;;;6.95;2.90;;;20.40;62.40;;;;;;4986074;28;20038;-67
2023/06/06 05:10:58;;;;;;;5.00;2.90;;;20.40;62.30;;;;;;4997224;28;20022;-65
2023/06/06 05:13:23;;;;;;;5.40;3.03;;;20.50;62.50;;;;;;5002219;28;20034;-64
2023/06/06 05:15:49;;;;;;;4.47;2.65;;;20.40;62.80;;;;;;5000196;28;20041;-64
2023/06/06 05:18:15;;;;;;;5.30;2.60;;;20.40;62.40;;;;;;5000156;28;20049;-66
2023/06/06 05:20:41;;;;;;;8.93;2.38;;;20.40;62.90;;;;;;4999397;28;20056;-64
2023/06/06 05:23:07;;;;;;;5.18;2.58;;;20.40;63.00;;;;;;5000421;28;20030;-64
2023/06/06 05:25:34;;;;;;;6.00;2.50;;;20.40;63.10;;;;;;4999029;28;20037;-67
2023/06/06 05:27:59;;;;;;;3.72;2.25;;;20.40;63.00;;;;;;4997455;28;20697;-66
2023/06/06 05:30:25;;;;;;;5.07;2.83;;;20.50;63.10;;;;;;4997885;28;20249;-66
2023/06/06 05:32:50;;;;;;;6.53;2.25;;;20.40;63.60;;;;;;4994123;28;20562;-67
2023/06/06 05:35:16;;;;;;;4.28;2.13;;;20.50;63.00;;;;;;4997771;28;20029;-68
2023/06/06 05:37:42;;;;;;;4.25;2.15;;;20.50;63.10;;;;;;4996538;28;20060;-65
2023/06/06 05:40:09;;;;;;;4.45;2.85;;;20.50;63.20;;;;;;4992317;28;20118;-66
2023/06/06 05:42:35;;;;;;;4.10;2.50;;;20.50;63.20;;;;;;5000914;28;20568;-65
2023/06/06 05:45:01;;;;;;;6.75;2.90;;;20.50;63.30;;;;;;5002100;28;20030;-65
2023/06/06 05:47:26;;;;;;;7.32;3.75;;;20.50;63.30;;;;;;4999979;28;20137;-64
2023/06/06 05:49:52;;;;;;;5.88;3.67;;;20.50;63.30;;;;;;4998682;28;20030;-65
2023/06/06 05:52:17;;;;;;;6.28;3.72;;;20.50;63.20;;;;;;4999259;28;20064;-65
2023/06/06 05:54:43;;;;;;;7.68;3.50;;;20.50;63.30;;;;;;4997013;28;20042;-65
2023/06/06 05:57:22;;;;;;;8.63;3.85;;;20.50;63.20;;;;;;4997228;28;20038;-65
2023/06/06 05:59:48;;;;;;;6.38;3.35;;;20.50;63.20;;;;;;4989625;28;20034;-65
2023/06/06 06:02:14;;;;;;;6.03;3.50;;;20.50;63.10;;;;;;4996995;28;20120;-63
2023/06/06 06:04:42;;;;;;;6.38;3.88;;;20.50;63.10;;;;;;4995854;28;20050;-66
2023/06/06 06:07:08;;;;;;;7.82;4.25;;;20.40;62.70;;;;;;4992136;28;20026;-63
2023/06/06 06:09:34;;;;;;;5.78;3.67;;;20.40;63.10;;;;;;4994331;28;20125;-66
2023/06/06 06:11:59;;;;;;;5.55;3.55;;;20.40;63.00;;;;;;5001876;28;20101;-66
2023/06/06 06:14:25;;;;;;;6.03;4.07;;;20.40;62.90;;;;;;4998806;28;20042;-66
2023/06/06 06:16:51;;;;;;;5.35;4.20;;;20.40;62.90;;;;;;5001206;28;20037;-67
2023/06/06 06:19:16;;;;;;;6.18;4.28;;;20.40;63.00;;;;;;5000126;28;20080;-66
2023/06/06 06:21:42;;;;;;;6.70;3.90;;;20.40;62.90;;;;;;4999466;28;20306;-67
2023/06/06 06:24:07;;;;;;;15.88;6.90;;;20.40;62.90;;;;;;4997945;28;20151;-68
2023/06/06 06:26:33;;;;;;;23.38;9.88;;;20.40;62.90;;;;;;4996157;28;20030;-67
2023/06/06 06:28:58;;;;;;;26.92;11.60;;;20.40;62.90;;;;;;4992757;28;20493;-65
2023/06/06 06:31:24;;;;;;;34.28;12.25;;;20.40;63.50;;;;;;4996230;28;20022;-66
2023/06/06 06:33:50;;;;;;;32.90;12.65;;;20.40;63.50;;;;;;4995582;28;20033;-66
2023/06/06 06:36:17;;;;;;;25.13;11.60;;;20.40;63.50;;;;;;4997516;28;20064;-66
2023/06/06 06:38:42;;;;;;;30.90;11.27;;;20.40;63.60;;;;;;4993964;28;20033;-65
2023/06/06 06:41:08;;;;;;;23.55;11.10;;;20.40;63.60;;;;;;4997583;28;20109;-64
2023/06/06 06:43:33;;;;;;;28.65;10.98;;;20.40;63.60;;;;;;5001364;28;20034;-64
2023/06/06 06:45:59;;;;;;;27.35;12.07;;;20.30;63.50;;;;;;5000783;28;20034;-62
2023/06/06 06:48:24;;;;;;;27.20;12.45;;;20.30;63.40;;;;;;4999152;28;20049;-64
2023/06/06 06:50:50;;;;;;;25.13;10.70;;;20.30;63.90;;;;;;4997133;28;20096;-65
2023/06/06 06:53:16;;;;;;;19.27;9.77;;;20.30;63.40;;;;;;4998049;28;20065;-69
2023/06/06 06:55:44;;;;;;;22.67;10.45;;;20.30;63.20;;;;;;4994622;28;20042;-66
2023/06/06 06:58:13;;;;;;;24.10;10.88;;;20.30;63.20;;;;;;4996076;28;20073;-67
2023/06/06 07:00:39;;;;;;;18.67;9.23;;;20.40;63.40;;;;;;4991082;28;20029;-66
2023/06/06 07:03:05;;;;;;;27.17;10.32;;;20.30;63.10;;;;;;4991165;28;20425;-69
2023/06/06 07:05:31;;;;;;;28.80;11.95;;;20.30;63.10;;;;;;4992638;28;20032;-66
2023/06/06 07:07:56;;;;;;;25.27;10.90;;;20.30;63.30;;;;;;4990680;28;20040;-66
2023/06/06 07:10:23;;;;;;;27.27;10.52;;;20.30;63.50;;;;;;4999175;28;20054;-67
2023/06/06 07:12:51;;;;;;;22.73;10.30;;;20.30;63.50;;;;;;5000293;28;20408;-66
2023/06/06 07:15:17;;;;;;;21.63;11.18;;;20.30;64.10;;;;;;4999355;28;20041;-66
2023/06/06 07:17:48;;;;;;;17.88;10.73;;;20.30;63.50;;;;;;4997199;28;20038;-66
2023/06/06 07:20:14;;;;;;;23.75;9.82;;;20.30;63.70;;;;;;4997756;28;20440;-66
2023/06/06 07:22:39;;;;;;;23.77;10.23;;;20.30;63.40;;;;;;4993744;28;20069;-66
2023/06/06 07:25:05;;;;;;;23.17;9.82;;;20.30;63.50;;;;;;4994482;28;20037;-64
2023/06/06 07:27:36;;;;;;;21.83;10.13;;;20.30;63.40;;;;;;4996618;28;20454;-67
2023/06/06 07:30:11;;;;;;;19.98;9.23;;;20.30;63.40;;;;;;4990289;28;20033;-67
2023/06/06 07:32:38;;;;;;;21.45;9.52;;;20.30;63.40;;;;;;4996779;28;20505;-66
2023/06/06 07:35:04;;;;;;;23.58;9.93;;;20.30;63.30;;;;;;4995680;28;20057;-65
2023/06/06 07:37:30;;;;;;;20.30;8.18;;;20.30;63.30;;;;;;4996451;28;20486;-66
2023/06/06 07:39:55;;;;;;;13.38;7.57;;;20.30;63.40;;;;;;5000127;28;20045;-66
2023/06/06 07:42:21;;;;;;;19.58;8.75;;;20.30;63.60;;;;;;4993844;28;20044;-68
2023/06/06 07:44:47;;;;;;;16.23;7.38;;;20.30;63.50;;;;;;5003493;28;20505;-66
2023/06/06 07:47:13;;;;;;;13.77;6.38;;;20.30;63.40;;;;;;4997202;28;20022;-66
2023/06/06 07:49:41;;;;;;;12.18;6.43;;;20.30;63.40;;;;;;4996074;28;20315;-67
2023/06/06 07:52:06;;;;;;;13.32;5.95;;;20.30;64.00;;;;;;4994179;28;20045;-67
2023/06/06 07:54:32;;;;;;;13.10;5.65;;;20.30;64.10;;;;;;4995874;28;20026;-62
2023/06/06 07:56:59;;;;;;;14.05;6.70;;;20.40;64.30;;;;;;4996535;28;20050;-68
2023/06/06 07:59:26;;;;;;;11.60;5.57;;;20.40;64.40;;;;;;4998094;28;20073;-67
2023/06/06 08:01:52;;;;;;;11.73;5.63;;;20.40;64.40;;;;;;4996647;28;20037;-66
2023/06/06 08:04:17;;;;;;;10.10;5.15;;;20.40;64.40;;;;;;5003451;28;20026;-67
2023/06/06 08:06:43;;;;;;;10.40;5.18;;;20.50;64.40;;;;;;4998553;28;20022;-66
2023/06/06 08:09:08;;;;;;;10.43;5.28;;;20.50;64.50;;;;;;5005581;28;20053;-66
2023/06/06 08:11:34;;;;;;;12.85;5.72;;;20.50;64.40;;;;;;5006718;28;20022;-66
2023/06/06 08:14:01;;;;;;;8.45;4.90;;;20.50;64.50;;;;;;5004393;28;20292;-66
2023/06/06 08:16:26;;;;;;;8.20;4.45;;;20.50;64.60;;;;;;5002698;28;20120;-66
2023/06/06 08:18:52;;;;;;;8.82;4.20;;;20.50;64.60;;;;;;5000975;28;20180;-66
2023/06/06 08:21:17;;;;;;;8.88;4.57;;;20.60;64.50;;;;;;4998646;28;20038;-66
2023/06/06 08:23:43;;;;;;;7.40;4.32;;;20.60;64.50;;;;;;4999405;28;20026;-65
2023/06/06 08:26:08;;;;;;;8.60;4.72;;;20.60;64.70;;;;;;4998187;28;20485;-65
2023/06/06 08:28:34;;;;;;;8.98;4.53;;;20.60;65.00;;;;;;5000646;28;21596;-65
2023/06/06 08:31:01;;;;;;;7.63;4.32;;;20.60;64.70;;;;;;4998069;28;20033;-64
2023/06/06 08:33:26;;;;;;;7.32;3.70;;;20.60;64.50;;;;;;4998658;28;20512;-64
2023/06/06 08:35:52;;;;;;;6.32;4.10;;;20.60;64.50;;;;;;4994937;28;20081;-65
2023/06/06 08:38:17;;;;;;;6.35;4.28;;;20.70;64.50;;;;;;5003318;28;20037;-66
2023/06/06 08:40:43;;;;;;;6.50;4.32;;;20.60;64.40;;;;;;5004949;28;20072;-67
2023/06/06 08:43:12;;;;;;;7.05;4.13;;;20.70;64.60;;;;;;5004615;28;20103;-66
2023/06/06 08:45:42;;;;;;;6.15;3.30;;;20.70;64.70;;;;;;4996337;28;20026;-66
2023/06/06 08:48:09;;;;;;;7.65;4.03;;;20.70;65.20;;;;;;5000100;28;20037;-65
2023/06/06 08:50:35;;;;;;;6.45;3.85;;;20.70;64.60;;;;;;4987259;28;20026;-66
2023/06/06 08:53:04;;;;;;;9.07;3.70;;;20.70;64.50;;;;;;5000828;28;20081;-65
2023/06/06 08:55:35;;;;;;;5.88;3.70;;;20.70;64.70;;;;;;5000466;28;20397;-66
2023/06/06 08:58:01;;;;;;;6.30;3.55;;;20.70;64.50;;;;;;4996855;28;20038;-65
2023/06/06 09:00:27;;;;;;;7.68;3.47;;;20.70;64.60;;;;;;4997696;28;20123;-65
2023/06/06 09:02:53;;;;;;;5.75;3.95;;;20.70;64.60;;;;;;4999567;28;20504;-66
2023/06/06 09:05:22;;;;;;;5.47;3.53;;;20.70;64.50;;;;;;4996626;28;20030;-66
2023/06/06 09:07:49;;;;;;;5.95;3.83;;;20.70;64.50;;;;;;5000622;28;20037;-67
2023/06/06 09:10:15;;;;;;;6.50;4.32;;;20.70;64.40;;;;;;4989017;28;20066;-66
2023/06/06 09:12:42;;;;;;;7.43;3.70;;;20.70;64.20;;;;;;5003669;28;20033;-66
2023/06/06 09:15:09;;;;;;;6.43;3.97;;;20.70;64.20;;;;;;4999424;28;20033;-66
2023/06/06 09:17:36;;;;;;;5.18;3.58;;;20.60;64.10;;;;;;4995676;28;20413;-66
2023/06/06 09:20:08;;;;;;;4.47;3.70;;;20.60;64.00;;;;;;4996475;28;20266;-65
2023/06/06 09:22:41;;;;;;;6.30;3.17;;;20.60;63.80;;;;;;4995515;28;20036;-66
2023/06/06 09:25:23;;;;;;;4.68;3.28;;;20.60;64.10;;;;;;4996442;28;20033;-66
2023/06/06 09:27:57;;;;;;;5.40;3.25;;;20.60;64.00;;;;;;4993073;28;20026;-66
2023/06/06 09:30:24;;;;;;;4.80;3.60;;;20.60;64.00;;;;;;4997373;28;20041;-63
2023/06/06 09:32:58;;;;;;;5.78;3.33;;;20.60;63.90;;;;;;4994567;28;20533;-67
2023/06/06 09:35:29;;;;;;;5.32;3.35;;;20.60;63.70;;;;;;4997541;28;20034;-65
2023/06/06 09:37:54;;;;;;;4.85;3.35;;;20.60;63.80;;;;;;5000281;28;20033;-66
2023/06/06 09:40:20;;;;;;;5.10;3.30;;;20.60;63.80;;;;;;5000228;28;20519;-65
2023/06/06 09:42:48;;;;;;;3.58;2.97;;;20.60;63.70;;;;;;4998762;28;20037;-66
2023/06/06 09:45:20;;;;;;;3.15;2.58;;;20.60;63.60;;;;;;4999074;28;20310;-66
2023/06/06 09:47:47;;;;;;;3.80;3.15;;;20.60;63.70;;;;;;4997483;28;20040;-65
2023/06/06 09:50:14;;;;;;;5.93;3.80;;;20.50;63.70;;;;;;4997499;28;20030;-65
2023/06/06 09:52:40;;;;;;;4.47;3.20;;;20.60;63.70;;;;;;4996996;28;20439;-66
2023/06/06 09:55:07;;;;;;;4.72;2.95;;;20.60;63.50;;;;;;4980183;28;20041;-66
2023/06/06 09:57:38;;;;;;;4.47;3.30;;;20.50;63.60;;;;;;4992308;28;20092;-65
2023/06/06 10:00:10;;;;;;;5.00;3.17;;;20.50;63.70;;;;;;4992481;28;20033;-66
2023/06/06 10:02:42;;;;;;;3.35;2.92;;;20.50;63.50;;;;;;4992205;28;20157;-65
2023/06/06 10:05:08;;;;;;;4.93;2.97;;;20.50;63.50;;;;;;4978736;28;20121;-66
2023/06/06 10:07:34;;;;;;;5.10;2.83;;;20.50;63.80;;;;;;5001487;28;20261;-66
2023/06/06 10:10:00;;;;;;;6.13;3.13;;;20.50;64.00;;;;;;5000486;28;20029;-66
2023/06/06 10:12:29;;;;;;;3.55;2.97;;;20.50;63.80;;;;;;4998457;28;20041;-66
2023/06/06 10:14:56;;;;;;;7.43;3.30;;;20.60;64.20;;;;;;4996708;28;20496;-66
2023/06/06 10:17:23;;;;;;;6.10;2.63;;;20.60;64.40;;;;;;4995161;28;20030;-66
2023/06/06 10:19:51;;;;;;;4.65;3.00;;;20.60;64.50;;;;;;4995821;28;20042;-66
2023/06/06 10:22:17;;;;;;;7.40;3.20;;;20.50;64.40;;;;;;4994953;28;20033;-65
2023/06/06 10:24:43;;;;;;;5.07;3.15;;;20.60;64.40;;;;;;4991878;28;20042;-66
2023/06/06 10:27:23;;;;;;;3.90;3.17;;;20.60;64.60;;;;;;4991227;28;20062;-67
2023/06/06 10:30:05;;;;;;;4.45;2.90;;;20.50;64.60;;;;;;4995195;28;20540;-65
2023/06/06 10:32:47;;;;;;;4.50;2.90;;;20.60;64.80;;;;;;4994163;28;20519;-66
2023/06/06 10:35:15;;;;;;;3.80;2.70;;;20.60;64.50;;;;;;5013175;28;20041;-68
2023/06/06 10:37:41;;;;;;;4.25;2.78;;;20.60;64.80;;;;;;5005804;28;20448;-65
2023/06/06 10:40:10;;;;;;;6.32;2.60;;;20.60;64.80;;;;;;4999665;28;20048;-66
2023/06/06 10:42:38;;;;;;;3.10;2.60;;;20.50;64.40;;;;;;4997744;28;20034;-66
2023/06/06 10:45:06;;;;;;;3.92;2.60;;;20.60;64.60;;;;;;4995883;28;20033;-66
2023/06/06 10:47:37;;;;;;;4.35;2.83;;;20.60;65.00;;;;;;4997259;28;20226;-66
2023/06/06 10:50:02;;;;;;;3.15;2.50;;;20.60;64.70;;;;;;4995770;28;20485;-65
2023/06/06 10:52:28;;;;;;;4.03;2.58;;;20.60;64.70;;;;;;4997686;28;20093;-66
2023/06/06 10:54:57;;;;;;;5.75;2.90;;;20.60;65.10;;;;;;4990084;28;20041;-66
2023/06/06 10:57:23;;;;;;;3.42;2.35;;;20.60;64.80;;;;;;4995600;28;20035;-66
2023/06/06 10:59:49;;;;;;;4.22;2.92;;;20.60;65.30;;;;;;4990118;28;20030;-66
2023/06/06 11:02:33;;;;;;;5.50;2.95;;;20.60;65.10;;;;;;4999958;28;20037;-65
2023/06/06 11:04:59;;;;;;;9.40;3.97;;;20.60;64.90;;;;;;4999237;28;20041;-66
2023/06/06 11:07:27;;;;;;;6.65;3.03;;;20.60;64.60;;;;;;5000085;28;20042;-65
2023/06/06 11:09:55;;;;;;;6.03;2.88;;;20.60;64.80;;;;;;4998982;28;20088;-64
2023/06/06 11:12:20;;;;;;;4.85;2.65;;;20.50;64.50;;;;;;4996358;28;20054;-65
2023/06/06 11:14:56;;;;;;;5.25;3.00;;;20.60;64.50;;;;;;4995646;28;20504;-66
2023/06/06 11:17:27;;;;;;;6.38;2.85;;;20.50;64.50;;;;;;4997318;28;20049;-65
2023/06/06 11:19:55;;;;;;;5.28;3.10;;;20.50;64.60;;;;;;4995819;28;20497;-65
2023/06/06 11:22:23;;;;;;;6.72;2.88;;;20.50;64.50;;;;;;4993008;28;20203;-65
2023/06/06 11:24:49;;;;;;;2.85;2.20;;;20.50;64.60;;;;;;4992736;28;20117;-65
2023/06/06 11:27:16;;;;;;;5.32;2.58;;;20.50;64.60;;;;;;4994457;28;20122;-65
2023/06/06 11:29:41;;;;;;;4.90;2.50;;;20.50;65.20;;;;;;4996500;28;20034;-65
2023/06/06 11:32:12;;;;;;;4.40;2.30;;;20.50;64.60;;;;;;5000460;28;20037;-65
2023/06/06 11:34:38;;;;;;;5.25;2.85;;;20.50;64.50;;;;;;4998048;28;20116;-65
2023/06/06 11:37:08;;;;;;;4.13;2.63;;;20.50;64.50;;;;;;4997907;28;20117;-66
2023/06/06 11:39:34;;;;;;;3.78;2.50;;;20.50;64.40;;;;;;4995349;28;20065;-66
2023/06/06 11:42:00;;;;;;;3.40;2.85;;;20.50;64.60;;;;;;4996562;28;20541;-65
2023/06/06 11:44:35;;;;;;;5.05;2.78;;;20.50;64.50;;;;;;4994065;28;20046;-63
2023/06/06 11:47:03;;;;;;;;;;;20.50;64.20;;;;;;4997369;28;20042;-65
2023/06/06 11:49:40;;;;;;;4.18;2.28;;;20.50;64.40;;;;;;4994910;28;19916;-66
2023/06/06 11:52:06;;;;;;;6.80;2.65;;;20.50;64.60;;;;;;4994402;28;20038;-66
2023/06/06 11:54:31;;;;;;;4.22;2.70;;;20.50;64.40;;;;;;4990227;28;20048;-64
2023/06/06 11:56:59;;;;;;;3.55;2.65;;;20.50;64.40;;;;;;4998676;28;20100;-66
2023/06/06 11:59:26;;;;;;;4.47;2.70;;;20.50;64.50;;;;;;4997229;28;20512;-65
2023/06/06 12:01:53;;;;;;;3.70;2.53;;;20.50;64.70;;;;;;4996362;28;20026;-66
2023/06/06 12:04:23;;;;;;;5.85;3.13;;;20.50;64.40;;;;;;4999160;28;20026;-66
2023/06/06 12:06:50;;;;;;;4.38;2.90;;;20.50;64.70;;;;;;4999251;28;20049;-66
2023/06/06 12:09:18;;;;;;;2.67;2.25;;;20.50;64.60;;;;;;4994965;28;20268;-66
2023/06/06 12:11:54;;;;;;;3.42;2.50;;;20.50;64.40;;;;;;4997583;28;21651;-66
2023/06/06 12:14:25;;;;;;;3.47;2.45;;;20.50;64.40;;;;;;4984085;28;20030;-66
2023/06/06 12:16:51;;;;;;;3.58;2.90;;;20.50;64.50;;;;;;4991746;28;20046;-66
2023/06/06 12:19:18;;;;;;;3.08;2.65;;;20.50;64.40;;;;;;4994626;28;20456;-67
2023/06/06 12:21:49;;;;;;;3.95;2.88;;;20.50;64.50;;;;;;4993135;28;20501;-64
2023/06/06 12:24:22;;;;;;;3.63;2.85;;;20.50;64.60;;;;;;4985182;28;20104;-66
2023/06/06 12:26:53;;;;;;;4.32;2.55;;;20.50;64.60;;;;;;5000337;28;20026;-67
2023/06/06 12:29:23;;;;;;;3.78;2.60;;;20.50;64.70;;;;;;4994406;28;20026;-67
2023/06/06 12:31:49;;;;;;;4.00;2.63;;;20.50;64.50;;;;;;5001697;28;20401;-66
2023/06/06 12:34:15;;;;;;;4.43;2.75;;;20.50;64.30;;;;;;5001566;28;20030;-67
2023/06/06 12:36:41;;;;;;;4.57;3.08;;;20.50;64.40;;;;;;4999346;28;20035;-66
2023/06/06 12:39:11;;;;;;;3.80;2.80;;;20.50;64.60;;;;;;4996892;28;20034;-66
2023/06/06 12:41:41;;;;;;;6.43;3.00;;;20.50;64.50;;;;;;4991242;28;20062;-66
2023/06/06 12:44:14;;;;;;;5.10;2.85;;;20.50;64.60;;;;;;4991603;28;20026;-66
2023/06/06 12:46:41;;;;;;;4.05;2.90;;;20.50;64.50;;;;;;4991137;28;20115;-66